<?xml version="1.0" encoding="UTF-8" standalone="no" ?>
<gpx xmlns="http://www.topografix.com/GPX/1/1" xmlns:xsi="http://www.w3.org/2001/XMLSchema-instance" xsi:schemaLocation="http://www.topografix.com/GPX/1/1 http://www.topografix.com/GPX/1/1/gpx.xsd" version="1.1" creator="VisuGPX - https://www.visugpx.com">
  <metadata>
    <name>Thoissey 14Km</name>
  </metadata>
  <trk>
    <name><![CDATA[Thoissey  14 km-20744478-20744576]]></name>
    <extensions>
      <line xmlns="http://www.topografix.com/GPX/gpx_style/0/2">
        <color>0000FF</color>
        <width>4</width>
      </line>
    </extensions>
    <trkseg>
      <trkpt lat="46.1716" lon="4.80271">
        <ele>175</ele>
        <time>2025-02-21T17:33:56Z</time>
      </trkpt>
      <trkpt lat="46.17159" lon="4.80263">
        <ele>175</ele>
        <time>2025-02-21T17:34:04Z</time>
      </trkpt>
      <trkpt lat="46.17157" lon="4.80259">
        <ele>175</ele>
        <time>2025-02-21T17:34:08Z</time>
      </trkpt>
      <trkpt lat="46.17156" lon="4.80252">
        <ele>175</ele>
        <time>2025-02-21T17:34:15Z</time>
      </trkpt>
      <trkpt lat="46.17154" lon="4.80246">
        <ele>175</ele>
        <time>2025-02-21T17:34:21Z</time>
      </trkpt>
      <trkpt lat="46.17152" lon="4.80236">
        <ele>175</ele>
        <time>2025-02-21T17:34:30Z</time>
      </trkpt>
      <trkpt lat="46.17152" lon="4.8023">
        <ele>175</ele>
        <time>2025-02-21T17:34:36Z</time>
      </trkpt>
      <trkpt lat="46.17149" lon="4.80217">
        <ele>175</ele>
        <time>2025-02-21T17:34:49Z</time>
      </trkpt>
      <trkpt lat="46.17147" lon="4.80208">
        <ele>175</ele>
        <time>2025-02-21T17:34:57Z</time>
      </trkpt>
      <trkpt lat="46.17129" lon="4.80142">
        <ele>174</ele>
        <time>2025-02-21T17:36:03Z</time>
      </trkpt>
      <trkpt lat="46.17089" lon="4.79972">
        <ele>173</ele>
        <time>2025-02-21T17:38:49Z</time>
      </trkpt>
      <trkpt lat="46.1709" lon="4.79956">
        <ele>174</ele>
        <time>2025-02-21T17:39:04Z</time>
      </trkpt>
      <trkpt lat="46.17087" lon="4.79936">
        <ele>175</ele>
        <time>2025-02-21T17:39:23Z</time>
      </trkpt>
      <trkpt lat="46.17079" lon="4.79887">
        <ele>175</ele>
        <time>2025-02-21T17:40:09Z</time>
      </trkpt>
      <trkpt lat="46.17056" lon="4.79858">
        <ele>175</ele>
        <time>2025-02-21T17:40:50Z</time>
      </trkpt>
      <trkpt lat="46.16987" lon="4.79767">
        <ele>175</ele>
        <time>2025-02-21T17:42:55Z</time>
      </trkpt>
      <trkpt lat="46.1691" lon="4.79675">
        <ele>177</ele>
        <time>2025-02-21T17:45:08Z</time>
      </trkpt>
      <trkpt lat="46.16868" lon="4.79626">
        <ele>175</ele>
        <time>2025-02-21T17:46:20Z</time>
      </trkpt>
      <trkpt lat="46.16804" lon="4.79547">
        <ele>176</ele>
        <time>2025-02-21T17:48:12Z</time>
      </trkpt>
      <trkpt lat="46.16728" lon="4.79457">
        <ele>176</ele>
        <time>2025-02-21T17:50:24Z</time>
      </trkpt>
      <trkpt lat="46.16687" lon="4.79409">
        <ele>173</ele>
        <time>2025-02-21T17:51:34Z</time>
      </trkpt>
      <trkpt lat="46.16683" lon="4.79387">
        <ele>173</ele>
        <time>2025-02-21T17:51:55Z</time>
      </trkpt>
      <trkpt lat="46.16662" lon="4.79352">
        <ele>171</ele>
        <time>2025-02-21T17:52:38Z</time>
      </trkpt>
      <trkpt lat="46.1665" lon="4.79311">
        <ele>171</ele>
        <time>2025-02-21T17:53:19Z</time>
      </trkpt>
      <trkpt lat="46.1662" lon="4.7921">
        <ele>171</ele>
        <time>2025-02-21T17:55:01Z</time>
      </trkpt>
      <trkpt lat="46.16623" lon="4.79198">
        <ele>171</ele>
        <time>2025-02-21T17:55:12Z</time>
      </trkpt>
      <trkpt lat="46.1661" lon="4.79132">
        <ele>171</ele>
        <time>2025-02-21T17:56:16Z</time>
      </trkpt>
      <trkpt lat="46.16589" lon="4.79077">
        <ele>170</ele>
        <time>2025-02-21T17:57:14Z</time>
      </trkpt>
      <trkpt lat="46.16582" lon="4.79054">
        <ele>169</ele>
        <time>2025-02-21T17:57:37Z</time>
      </trkpt>
      <trkpt lat="46.16575" lon="4.79037">
        <ele>169</ele>
        <time>2025-02-21T17:57:55Z</time>
      </trkpt>
      <trkpt lat="46.16568" lon="4.79032">
        <ele>169</ele>
        <time>2025-02-21T17:58:06Z</time>
      </trkpt>
      <trkpt lat="46.16563" lon="4.79033">
        <ele>169</ele>
        <time>2025-02-21T17:58:12Z</time>
      </trkpt>
      <trkpt lat="46.16548" lon="4.79051">
        <ele>170</ele>
        <time>2025-02-21T17:58:38Z</time>
      </trkpt>
      <trkpt lat="46.16535" lon="4.79078">
        <ele>171</ele>
        <time>2025-02-21T17:59:09Z</time>
      </trkpt>
      <trkpt lat="46.16512" lon="4.79159">
        <ele>171</ele>
        <time>2025-02-21T18:00:30Z</time>
      </trkpt>
      <trkpt lat="46.16515" lon="4.79203">
        <ele>170</ele>
        <time>2025-02-21T18:01:11Z</time>
      </trkpt>
      <trkpt lat="46.16511" lon="4.79222">
        <ele>170</ele>
        <time>2025-02-21T18:01:29Z</time>
      </trkpt>
      <trkpt lat="46.16467" lon="4.79309">
        <ele>168</ele>
        <time>2025-02-21T18:03:09Z</time>
      </trkpt>
      <trkpt lat="46.16368" lon="4.79496">
        <ele>169</ele>
        <time>2025-02-21T18:06:46Z</time>
      </trkpt>
      <trkpt lat="46.16352" lon="4.7953">
        <ele>168</ele>
        <time>2025-02-21T18:07:24Z</time>
      </trkpt>
      <trkpt lat="46.16338" lon="4.79585">
        <ele>169</ele>
        <time>2025-02-21T18:08:18Z</time>
      </trkpt>
      <trkpt lat="46.16333" lon="4.79601">
        <ele>169</ele>
        <time>2025-02-21T18:08:34Z</time>
      </trkpt>
      <trkpt lat="46.16308" lon="4.79658">
        <ele>168</ele>
        <time>2025-02-21T18:09:37Z</time>
      </trkpt>
      <trkpt lat="46.1629" lon="4.79705">
        <ele>169</ele>
        <time>2025-02-21T18:10:26Z</time>
      </trkpt>
      <trkpt lat="46.16207" lon="4.79848">
        <ele>169</ele>
        <time>2025-02-21T18:13:19Z</time>
      </trkpt>
      <trkpt lat="46.16117" lon="4.80015">
        <ele>168</ele>
        <time>2025-02-21T18:16:34Z</time>
      </trkpt>
      <trkpt lat="46.16064" lon="4.80104">
        <ele>168</ele>
        <time>2025-02-21T18:18:23Z</time>
      </trkpt>
      <trkpt lat="46.16044" lon="4.80121">
        <ele>169</ele>
        <time>2025-02-21T18:18:54Z</time>
      </trkpt>
      <trkpt lat="46.16021" lon="4.80157">
        <ele>170</ele>
        <time>2025-02-21T18:19:39Z</time>
      </trkpt>
      <trkpt lat="46.15958" lon="4.80259">
        <ele>169</ele>
        <time>2025-02-21T18:21:46Z</time>
      </trkpt>
      <trkpt lat="46.15914" lon="4.80318">
        <ele>172</ele>
        <time>2025-02-21T18:23:06Z</time>
      </trkpt>
      <trkpt lat="46.15867" lon="4.80372">
        <ele>171</ele>
        <time>2025-02-21T18:24:26Z</time>
      </trkpt>
      <trkpt lat="46.15821" lon="4.80414">
        <ele>172</ele>
        <time>2025-02-21T18:25:38Z</time>
      </trkpt>
      <trkpt lat="46.15796" lon="4.80433">
        <ele>170</ele>
        <time>2025-02-21T18:26:16Z</time>
      </trkpt>
      <trkpt lat="46.15777" lon="4.80442">
        <ele>170</ele>
        <time>2025-02-21T18:26:43Z</time>
      </trkpt>
      <trkpt lat="46.15713" lon="4.80456">
        <ele>169</ele>
        <time>2025-02-21T18:28:09Z</time>
      </trkpt>
      <trkpt lat="46.1561" lon="4.80486">
        <ele>170</ele>
        <time>2025-02-21T18:30:29Z</time>
      </trkpt>
      <trkpt lat="46.15541" lon="4.80518">
        <ele>171</ele>
        <time>2025-02-21T18:32:06Z</time>
      </trkpt>
      <trkpt lat="46.15484" lon="4.80527">
        <ele>171</ele>
        <time>2025-02-21T18:33:23Z</time>
      </trkpt>
      <trkpt lat="46.15439" lon="4.80523">
        <ele>171</ele>
        <time>2025-02-21T18:34:23Z</time>
      </trkpt>
      <trkpt lat="46.15412" lon="4.80515">
        <ele>171</ele>
        <time>2025-02-21T18:35:00Z</time>
      </trkpt>
      <trkpt lat="46.15314" lon="4.80487">
        <ele>170</ele>
        <time>2025-02-21T18:37:13Z</time>
      </trkpt>
      <trkpt lat="46.15177" lon="4.80447">
        <ele>169</ele>
        <time>2025-02-21T18:40:19Z</time>
      </trkpt>
      <trkpt lat="46.14948" lon="4.80373">
        <ele>167</ele>
        <time>2025-02-21T18:45:33Z</time>
      </trkpt>
      <trkpt lat="46.1485" lon="4.80337">
        <ele>169</ele>
        <time>2025-02-21T18:47:48Z</time>
      </trkpt>
      <trkpt lat="46.14824" lon="4.80329">
        <ele>170</ele>
        <time>2025-02-21T18:48:23Z</time>
      </trkpt>
      <trkpt lat="46.14629" lon="4.80238">
        <ele>167</ele>
        <time>2025-02-21T18:52:56Z</time>
      </trkpt>
      <trkpt lat="46.14603" lon="4.80249">
        <ele>167</ele>
        <time>2025-02-21T18:53:33Z</time>
      </trkpt>
      <trkpt lat="46.14571" lon="4.80246">
        <ele>167</ele>
        <time>2025-02-21T18:54:15Z</time>
      </trkpt>
      <trkpt lat="46.14468" lon="4.80216">
        <ele>168</ele>
        <time>2025-02-21T18:56:36Z</time>
      </trkpt>
      <trkpt lat="46.14431" lon="4.8021">
        <ele>168</ele>
        <time>2025-02-21T18:57:25Z</time>
      </trkpt>
      <trkpt lat="46.14372" lon="4.80188">
        <ele>169</ele>
        <time>2025-02-21T18:58:47Z</time>
      </trkpt>
      <trkpt lat="46.14228" lon="4.80112">
        <ele>168</ele>
        <time>2025-02-21T19:02:11Z</time>
      </trkpt>
      <trkpt lat="46.14126" lon="4.80036">
        <ele>169</ele>
        <time>2025-02-21T19:04:44Z</time>
      </trkpt>
      <trkpt lat="46.14066" lon="4.79975">
        <ele>169</ele>
        <time>2025-02-21T19:06:22Z</time>
      </trkpt>
      <trkpt lat="46.13847" lon="4.79739">
        <ele>170</ele>
        <time>2025-02-21T19:12:27Z</time>
      </trkpt>
      <trkpt lat="46.1381" lon="4.79817">
        <ele>171</ele>
        <time>2025-02-21T19:13:55Z</time>
      </trkpt>
      <trkpt lat="46.13778" lon="4.79858">
        <ele>171</ele>
        <time>2025-02-21T19:14:52Z</time>
      </trkpt>
      <trkpt lat="46.13708" lon="4.80014">
        <ele>171</ele>
        <time>2025-02-21T19:17:43Z</time>
      </trkpt>
      <trkpt lat="46.13625" lon="4.80227">
        <ele>178</ele>
        <time>2025-02-21T19:21:29Z</time>
      </trkpt>
      <trkpt lat="46.13599" lon="4.80238">
        <ele>178</ele>
        <time>2025-02-21T19:22:06Z</time>
      </trkpt>
      <trkpt lat="46.13558" lon="4.80291">
        <ele>182</ele>
        <time>2025-02-21T19:23:19Z</time>
      </trkpt>
      <trkpt lat="46.13667" lon="4.80467">
        <ele>195</ele>
        <time>2025-02-21T19:26:57Z</time>
      </trkpt>
      <trkpt lat="46.13748" lon="4.80572">
        <ele>198</ele>
        <time>2025-02-21T19:29:23Z</time>
      </trkpt>
      <trkpt lat="46.13776" lon="4.80602">
        <ele>198</ele>
        <time>2025-02-21T19:30:09Z</time>
      </trkpt>
      <trkpt lat="46.138" lon="4.80634">
        <ele>199</ele>
        <time>2025-02-21T19:30:53Z</time>
      </trkpt>
      <trkpt lat="46.13863" lon="4.80754">
        <ele>206</ele>
        <time>2025-02-21T19:33:12Z</time>
      </trkpt>
      <trkpt lat="46.13962" lon="4.80794">
        <ele>205</ele>
        <time>2025-02-21T19:35:29Z</time>
      </trkpt>
      <trkpt lat="46.13975" lon="4.80795">
        <ele>204</ele>
        <time>2025-02-21T19:35:47Z</time>
      </trkpt>
      <trkpt lat="46.13992" lon="4.80789">
        <ele>203</ele>
        <time>2025-02-21T19:36:10Z</time>
      </trkpt>
      <trkpt lat="46.13997" lon="4.80773">
        <ele>202</ele>
        <time>2025-02-21T19:36:26Z</time>
      </trkpt>
      <trkpt lat="46.14042" lon="4.80767">
        <ele>198</ele>
        <time>2025-02-21T19:37:26Z</time>
      </trkpt>
      <trkpt lat="46.14034" lon="4.80898">
        <ele>209</ele>
        <time>2025-02-21T19:39:28Z</time>
      </trkpt>
      <trkpt lat="46.14025" lon="4.80991">
        <ele>212</ele>
        <time>2025-02-21T19:40:55Z</time>
      </trkpt>
      <trkpt lat="46.14026" lon="4.81007">
        <ele>212</ele>
        <time>2025-02-21T19:41:10Z</time>
      </trkpt>
      <trkpt lat="46.1402" lon="4.8105">
        <ele>213</ele>
        <time>2025-02-21T19:41:50Z</time>
      </trkpt>
      <trkpt lat="46.14022" lon="4.8107">
        <ele>213</ele>
        <time>2025-02-21T19:42:09Z</time>
      </trkpt>
      <trkpt lat="46.14034" lon="4.81093">
        <ele>211</ele>
        <time>2025-02-21T19:42:36Z</time>
      </trkpt>
      <trkpt lat="46.14034" lon="4.81115">
        <ele>210</ele>
        <time>2025-02-21T19:42:56Z</time>
      </trkpt>
      <trkpt lat="46.13992" lon="4.81149">
        <ele>212</ele>
        <time>2025-02-21T19:44:00Z</time>
      </trkpt>
      <trkpt lat="46.1397" lon="4.81154">
        <ele>214</ele>
        <time>2025-02-21T19:44:30Z</time>
      </trkpt>
      <trkpt lat="46.1396" lon="4.81178">
        <ele>213</ele>
        <time>2025-02-21T19:44:56Z</time>
      </trkpt>
      <trkpt lat="46.1397" lon="4.81319">
        <ele>202</ele>
        <time>2025-02-21T19:47:07Z</time>
      </trkpt>
      <trkpt lat="46.1397" lon="4.81337">
        <ele>201</ele>
        <time>2025-02-21T19:47:24Z</time>
      </trkpt>
      <trkpt lat="46.13982" lon="4.81413">
        <ele>203</ele>
        <time>2025-02-21T19:48:36Z</time>
      </trkpt>
      <trkpt lat="46.14007" lon="4.81505">
        <ele>214</ele>
        <time>2025-02-21T19:50:07Z</time>
      </trkpt>
      <trkpt lat="46.14015" lon="4.8154">
        <ele>216</ele>
        <time>2025-02-21T19:50:41Z</time>
      </trkpt>
      <trkpt lat="46.14025" lon="4.81617">
        <ele>218</ele>
        <time>2025-02-21T19:51:53Z</time>
      </trkpt>
      <trkpt lat="46.1403" lon="4.81645">
        <ele>218</ele>
        <time>2025-02-21T19:52:20Z</time>
      </trkpt>
      <trkpt lat="46.14036" lon="4.81661">
        <ele>218</ele>
        <time>2025-02-21T19:52:37Z</time>
      </trkpt>
      <trkpt lat="46.14044" lon="4.81676">
        <ele>218</ele>
        <time>2025-02-21T19:52:55Z</time>
      </trkpt>
      <trkpt lat="46.14104" lon="4.81765">
        <ele>219</ele>
        <time>2025-02-21T19:54:49Z</time>
      </trkpt>
      <trkpt lat="46.14131" lon="4.81804">
        <ele>219</ele>
        <time>2025-02-21T19:55:40Z</time>
      </trkpt>
      <trkpt lat="46.14175" lon="4.81891">
        <ele>220</ele>
        <time>2025-02-21T19:57:20Z</time>
      </trkpt>
      <trkpt lat="46.14185" lon="4.81919">
        <ele>220</ele>
        <time>2025-02-21T19:57:49Z</time>
      </trkpt>
      <trkpt lat="46.14248" lon="4.82008">
        <ele>220</ele>
        <time>2025-02-21T19:59:47Z</time>
      </trkpt>
      <trkpt lat="46.14262" lon="4.82015">
        <ele>220</ele>
        <time>2025-02-21T20:00:06Z</time>
      </trkpt>
      <trkpt lat="46.14297" lon="4.82008">
        <ele>220</ele>
        <time>2025-02-21T20:00:54Z</time>
      </trkpt>
      <trkpt lat="46.1433" lon="4.82005">
        <ele>221</ele>
        <time>2025-02-21T20:01:38Z</time>
      </trkpt>
      <trkpt lat="46.14319" lon="4.82037">
        <ele>220</ele>
        <time>2025-02-21T20:02:11Z</time>
      </trkpt>
      <trkpt lat="46.14312" lon="4.82082">
        <ele>220</ele>
        <time>2025-02-21T20:02:53Z</time>
      </trkpt>
      <trkpt lat="46.14308" lon="4.82137">
        <ele>220</ele>
        <time>2025-02-21T20:03:45Z</time>
      </trkpt>
      <trkpt lat="46.14327" lon="4.82197">
        <ele>219</ele>
        <time>2025-02-21T20:04:46Z</time>
      </trkpt>
      <trkpt lat="46.14313" lon="4.82267">
        <ele>219</ele>
        <time>2025-02-21T20:05:53Z</time>
      </trkpt>
      <trkpt lat="46.143" lon="4.82313">
        <ele>220</ele>
        <time>2025-02-21T20:06:39Z</time>
      </trkpt>
      <trkpt lat="46.143" lon="4.82329">
        <ele>220</ele>
        <time>2025-02-21T20:06:54Z</time>
      </trkpt>
      <trkpt lat="46.14306" lon="4.82351">
        <ele>220</ele>
        <time>2025-02-21T20:07:15Z</time>
      </trkpt>
      <trkpt lat="46.14326" lon="4.82389">
        <ele>219</ele>
        <time>2025-02-21T20:08:00Z</time>
      </trkpt>
      <trkpt lat="46.1433" lon="4.8241">
        <ele>219</ele>
        <time>2025-02-21T20:08:20Z</time>
      </trkpt>
      <trkpt lat="46.14332" lon="4.82481">
        <ele>220</ele>
        <time>2025-02-21T20:09:25Z</time>
      </trkpt>
      <trkpt lat="46.14329" lon="4.82537">
        <ele>220</ele>
        <time>2025-02-21T20:10:17Z</time>
      </trkpt>
      <trkpt lat="46.14322" lon="4.82585">
        <ele>220</ele>
        <time>2025-02-21T20:11:03Z</time>
      </trkpt>
      <trkpt lat="46.14312" lon="4.82631">
        <ele>220</ele>
        <time>2025-02-21T20:11:47Z</time>
      </trkpt>
      <trkpt lat="46.14302" lon="4.82657">
        <ele>220</ele>
        <time>2025-02-21T20:12:15Z</time>
      </trkpt>
      <trkpt lat="46.14272" lon="4.82721">
        <ele>222</ele>
        <time>2025-02-21T20:13:26Z</time>
      </trkpt>
      <trkpt lat="46.14265" lon="4.82738">
        <ele>222</ele>
        <time>2025-02-21T20:13:45Z</time>
      </trkpt>
      <trkpt lat="46.14263" lon="4.82757">
        <ele>223</ele>
        <time>2025-02-21T20:14:02Z</time>
      </trkpt>
      <trkpt lat="46.14325" lon="4.82791">
        <ele>221</ele>
        <time>2025-02-21T20:15:31Z</time>
      </trkpt>
      <trkpt lat="46.14376" lon="4.82826">
        <ele>222</ele>
        <time>2025-02-21T20:16:46Z</time>
      </trkpt>
      <trkpt lat="46.14446" lon="4.82893">
        <ele>224</ele>
        <time>2025-02-21T20:18:38Z</time>
      </trkpt>
      <trkpt lat="46.14485" lon="4.82929">
        <ele>225</ele>
        <time>2025-02-21T20:19:40Z</time>
      </trkpt>
      <trkpt lat="46.14512" lon="4.82963">
        <ele>225</ele>
        <time>2025-02-21T20:20:28Z</time>
      </trkpt>
      <trkpt lat="46.14536" lon="4.83024">
        <ele>224</ele>
        <time>2025-02-21T20:21:33Z</time>
      </trkpt>
      <trkpt lat="46.14546" lon="4.83041">
        <ele>224</ele>
        <time>2025-02-21T20:21:53Z</time>
      </trkpt>
      <trkpt lat="46.14564" lon="4.8305">
        <ele>224</ele>
        <time>2025-02-21T20:22:19Z</time>
      </trkpt>
      <trkpt lat="46.14721" lon="4.83077">
        <ele>223</ele>
        <time>2025-02-21T20:25:50Z</time>
      </trkpt>
      <trkpt lat="46.14774" lon="4.83079">
        <ele>223</ele>
        <time>2025-02-21T20:27:00Z</time>
      </trkpt>
      <trkpt lat="46.14938" lon="4.83103">
        <ele>220</ele>
        <time>2025-02-21T20:30:40Z</time>
      </trkpt>
      <trkpt lat="46.14944" lon="4.83104">
        <ele>220</ele>
        <time>2025-02-21T20:30:49Z</time>
      </trkpt>
      <trkpt lat="46.14996" lon="4.83119">
        <ele>219</ele>
        <time>2025-02-21T20:31:59Z</time>
      </trkpt>
      <trkpt lat="46.15091" lon="4.83115">
        <ele>221</ele>
        <time>2025-02-21T20:34:06Z</time>
      </trkpt>
      <trkpt lat="46.15145" lon="4.83122">
        <ele>220</ele>
        <time>2025-02-21T20:35:18Z</time>
      </trkpt>
      <trkpt lat="46.15289" lon="4.83153">
        <ele>217</ele>
        <time>2025-02-21T20:38:33Z</time>
      </trkpt>
      <trkpt lat="46.15322" lon="4.8316">
        <ele>216</ele>
        <time>2025-02-21T20:39:17Z</time>
      </trkpt>
      <trkpt lat="46.15401" lon="4.83193">
        <ele>213</ele>
        <time>2025-02-21T20:41:07Z</time>
      </trkpt>
      <trkpt lat="46.15529" lon="4.83232">
        <ele>213</ele>
        <time>2025-02-21T20:44:02Z</time>
      </trkpt>
      <trkpt lat="46.15711" lon="4.83524">
        <ele>205</ele>
        <time>2025-02-21T20:50:05Z</time>
      </trkpt>
      <trkpt lat="46.15756" lon="4.83387">
        <ele>205</ele>
        <time>2025-02-21T20:52:25Z</time>
      </trkpt>
      <trkpt lat="46.15765" lon="4.8336">
        <ele>206</ele>
        <time>2025-02-21T20:52:53Z</time>
      </trkpt>
      <trkpt lat="46.15777" lon="4.83268">
        <ele>208</ele>
        <time>2025-02-21T20:54:19Z</time>
      </trkpt>
      <trkpt lat="46.15776" lon="4.83265">
        <ele>208</ele>
        <time>2025-02-21T20:54:22Z</time>
      </trkpt>
      <trkpt lat="46.15796" lon="4.83121">
        <ele>209</ele>
        <time>2025-02-21T20:56:38Z</time>
      </trkpt>
      <trkpt lat="46.15813" lon="4.8296">
        <ele>204</ele>
        <time>2025-02-21T20:59:08Z</time>
      </trkpt>
      <trkpt lat="46.15814" lon="4.82892">
        <ele>204</ele>
        <time>2025-02-21T21:00:11Z</time>
      </trkpt>
      <trkpt lat="46.15852" lon="4.82886">
        <ele>203</ele>
        <time>2025-02-21T21:01:02Z</time>
      </trkpt>
      <trkpt lat="46.15922" lon="4.8284">
        <ele>203</ele>
        <time>2025-02-21T21:02:45Z</time>
      </trkpt>
      <trkpt lat="46.16045" lon="4.82839">
        <ele>200</ele>
        <time>2025-02-21T21:05:29Z</time>
      </trkpt>
      <trkpt lat="46.16077" lon="4.82822">
        <ele>200</ele>
        <time>2025-02-21T21:06:15Z</time>
      </trkpt>
      <trkpt lat="46.16092" lon="4.8279">
        <ele>201</ele>
        <time>2025-02-21T21:06:50Z</time>
      </trkpt>
      <trkpt lat="46.16102" lon="4.82622">
        <ele>206</ele>
        <time>2025-02-21T21:09:26Z</time>
      </trkpt>
      <trkpt lat="46.16103" lon="4.82584">
        <ele>207</ele>
        <time>2025-02-21T21:10:01Z</time>
      </trkpt>
      <trkpt lat="46.161" lon="4.82563">
        <ele>207</ele>
        <time>2025-02-21T21:10:21Z</time>
      </trkpt>
      <trkpt lat="46.16096" lon="4.82547">
        <ele>207</ele>
        <time>2025-02-21T21:10:37Z</time>
      </trkpt>
      <trkpt lat="46.1607" lon="4.82493">
        <ele>207</ele>
        <time>2025-02-21T21:11:38Z</time>
      </trkpt>
      <trkpt lat="46.16067" lon="4.82474">
        <ele>206</ele>
        <time>2025-02-21T21:11:56Z</time>
      </trkpt>
      <trkpt lat="46.16068" lon="4.82421">
        <ele>204</ele>
        <time>2025-02-21T21:12:45Z</time>
      </trkpt>
      <trkpt lat="46.16063" lon="4.82376">
        <ele>202</ele>
        <time>2025-02-21T21:13:27Z</time>
      </trkpt>
      <trkpt lat="46.16042" lon="4.82316">
        <ele>199</ele>
        <time>2025-02-21T21:14:29Z</time>
      </trkpt>
      <trkpt lat="46.16029" lon="4.82296">
        <ele>199</ele>
        <time>2025-02-21T21:14:54Z</time>
      </trkpt>
      <trkpt lat="46.16046" lon="4.82278">
        <ele>198</ele>
        <time>2025-02-21T21:15:22Z</time>
      </trkpt>
      <trkpt lat="46.16098" lon="4.82251">
        <ele>197</ele>
        <time>2025-02-21T21:16:36Z</time>
      </trkpt>
      <trkpt lat="46.16145" lon="4.82227">
        <ele>195</ele>
        <time>2025-02-21T21:17:43Z</time>
      </trkpt>
      <trkpt lat="46.16159" lon="4.82224">
        <ele>195</ele>
        <time>2025-02-21T21:18:02Z</time>
      </trkpt>
      <trkpt lat="46.16188" lon="4.82216">
        <ele>195</ele>
        <time>2025-02-21T21:18:41Z</time>
      </trkpt>
      <trkpt lat="46.16217" lon="4.82214">
        <ele>194</ele>
        <time>2025-02-21T21:19:20Z</time>
      </trkpt>
      <trkpt lat="46.1623" lon="4.82212">
        <ele>194</ele>
        <time>2025-02-21T21:19:37Z</time>
      </trkpt>
      <trkpt lat="46.16243" lon="4.82207">
        <ele>194</ele>
        <time>2025-02-21T21:19:55Z</time>
      </trkpt>
      <trkpt lat="46.16323" lon="4.82294">
        <ele>196</ele>
        <time>2025-02-21T21:22:09Z</time>
      </trkpt>
      <trkpt lat="46.16398" lon="4.82319">
        <ele>198</ele>
        <time>2025-02-21T21:23:51Z</time>
      </trkpt>
      <trkpt lat="46.16492" lon="4.82342">
        <ele>200</ele>
        <time>2025-02-21T21:25:59Z</time>
      </trkpt>
      <trkpt lat="46.16543" lon="4.82351">
        <ele>199</ele>
        <time>2025-02-21T21:27:07Z</time>
      </trkpt>
      <trkpt lat="46.16552" lon="4.82343">
        <ele>199</ele>
        <time>2025-02-21T21:27:21Z</time>
      </trkpt>
      <trkpt lat="46.16561" lon="4.82332">
        <ele>198</ele>
        <time>2025-02-21T21:27:37Z</time>
      </trkpt>
      <trkpt lat="46.16609" lon="4.8233">
        <ele>197</ele>
        <time>2025-02-21T21:28:41Z</time>
      </trkpt>
      <trkpt lat="46.16653" lon="4.82337">
        <ele>196</ele>
        <time>2025-02-21T21:29:40Z</time>
      </trkpt>
      <trkpt lat="46.16712" lon="4.82335">
        <ele>195</ele>
        <time>2025-02-21T21:30:59Z</time>
      </trkpt>
      <trkpt lat="46.16752" lon="4.82325">
        <ele>194</ele>
        <time>2025-02-21T21:31:53Z</time>
      </trkpt>
      <trkpt lat="46.16777" lon="4.82312">
        <ele>192</ele>
        <time>2025-02-21T21:32:29Z</time>
      </trkpt>
      <trkpt lat="46.16805" lon="4.82286">
        <ele>190</ele>
        <time>2025-02-21T21:33:13Z</time>
      </trkpt>
      <trkpt lat="46.16814" lon="4.82269">
        <ele>190</ele>
        <time>2025-02-21T21:33:33Z</time>
      </trkpt>
      <trkpt lat="46.16829" lon="4.82222">
        <ele>189</ele>
        <time>2025-02-21T21:34:21Z</time>
      </trkpt>
      <trkpt lat="46.16853" lon="4.82132">
        <ele>187</ele>
        <time>2025-02-21T21:35:50Z</time>
      </trkpt>
      <trkpt lat="46.16894" lon="4.82081">
        <ele>186</ele>
        <time>2025-02-21T21:37:02Z</time>
      </trkpt>
      <trkpt lat="46.169" lon="4.82057">
        <ele>186</ele>
        <time>2025-02-21T21:37:26Z</time>
      </trkpt>
      <trkpt lat="46.16903" lon="4.82035">
        <ele>186</ele>
        <time>2025-02-21T21:37:46Z</time>
      </trkpt>
      <trkpt lat="46.16901" lon="4.82011">
        <ele>186</ele>
        <time>2025-02-21T21:38:09Z</time>
      </trkpt>
      <trkpt lat="46.16897" lon="4.81998">
        <ele>186</ele>
        <time>2025-02-21T21:38:22Z</time>
      </trkpt>
      <trkpt lat="46.1691" lon="4.8199">
        <ele>185</ele>
        <time>2025-02-21T21:38:41Z</time>
      </trkpt>
      <trkpt lat="46.16923" lon="4.81971">
        <ele>184</ele>
        <time>2025-02-21T21:39:05Z</time>
      </trkpt>
      <trkpt lat="46.16941" lon="4.81971">
        <ele>184</ele>
        <time>2025-02-21T21:39:29Z</time>
      </trkpt>
      <trkpt lat="46.16948" lon="4.81948">
        <ele>184</ele>
        <time>2025-02-21T21:39:53Z</time>
      </trkpt>
      <trkpt lat="46.16954" lon="4.81936">
        <ele>184</ele>
        <time>2025-02-21T21:40:06Z</time>
      </trkpt>
      <trkpt lat="46.16964" lon="4.81951">
        <ele>184</ele>
        <time>2025-02-21T21:40:26Z</time>
      </trkpt>
      <trkpt lat="46.16971" lon="4.81955">
        <ele>184</ele>
        <time>2025-02-21T21:40:36Z</time>
      </trkpt>
      <trkpt lat="46.17022" lon="4.81928">
        <ele>183</ele>
        <time>2025-02-21T21:41:48Z</time>
      </trkpt>
      <trkpt lat="46.17066" lon="4.81919">
        <ele>180</ele>
        <time>2025-02-21T21:42:47Z</time>
      </trkpt>
      <trkpt lat="46.17082" lon="4.81911">
        <ele>179</ele>
        <time>2025-02-21T21:43:10Z</time>
      </trkpt>
      <trkpt lat="46.17132" lon="4.81879">
        <ele>178</ele>
        <time>2025-02-21T21:44:23Z</time>
      </trkpt>
      <trkpt lat="46.17152" lon="4.81874">
        <ele>176</ele>
        <time>2025-02-21T21:44:50Z</time>
      </trkpt>
      <trkpt lat="46.17221" lon="4.81918">
        <ele>176</ele>
        <time>2025-02-21T21:46:31Z</time>
      </trkpt>
      <trkpt lat="46.17216" lon="4.81823">
        <ele>176</ele>
        <time>2025-02-21T21:47:59Z</time>
      </trkpt>
      <trkpt lat="46.1725" lon="4.81791">
        <ele>176</ele>
        <time>2025-02-21T21:48:53Z</time>
      </trkpt>
      <trkpt lat="46.17268" lon="4.81786">
        <ele>176</ele>
        <time>2025-02-21T21:49:17Z</time>
      </trkpt>
      <trkpt lat="46.17282" lon="4.81774">
        <ele>176</ele>
        <time>2025-02-21T21:49:39Z</time>
      </trkpt>
      <trkpt lat="46.17305" lon="4.81766">
        <ele>176</ele>
        <time>2025-02-21T21:50:11Z</time>
      </trkpt>
      <trkpt lat="46.17322" lon="4.81741">
        <ele>176</ele>
        <time>2025-02-21T21:50:43Z</time>
      </trkpt>
      <trkpt lat="46.17365" lon="4.81716">
        <ele>176</ele>
        <time>2025-02-21T21:51:45Z</time>
      </trkpt>
      <trkpt lat="46.17409" lon="4.81702">
        <ele>175</ele>
        <time>2025-02-21T21:52:45Z</time>
      </trkpt>
      <trkpt lat="46.17438" lon="4.81664">
        <ele>175</ele>
        <time>2025-02-21T21:53:37Z</time>
      </trkpt>
      <trkpt lat="46.17462" lon="4.81642">
        <ele>175</ele>
        <time>2025-02-21T21:54:15Z</time>
      </trkpt>
      <trkpt lat="46.17475" lon="4.81638">
        <ele>175</ele>
        <time>2025-02-21T21:54:33Z</time>
      </trkpt>
      <trkpt lat="46.17486" lon="4.81645">
        <ele>175</ele>
        <time>2025-02-21T21:54:49Z</time>
      </trkpt>
      <trkpt lat="46.17502" lon="4.8165">
        <ele>175</ele>
        <time>2025-02-21T21:55:11Z</time>
      </trkpt>
      <trkpt lat="46.17511" lon="4.81645">
        <ele>175</ele>
        <time>2025-02-21T21:55:24Z</time>
      </trkpt>
      <trkpt lat="46.17524" lon="4.81586">
        <ele>176</ele>
        <time>2025-02-21T21:56:21Z</time>
      </trkpt>
      <trkpt lat="46.17545" lon="4.81548">
        <ele>175</ele>
        <time>2025-02-21T21:57:06Z</time>
      </trkpt>
      <trkpt lat="46.17554" lon="4.81516">
        <ele>174</ele>
        <time>2025-02-21T21:57:38Z</time>
      </trkpt>
      <trkpt lat="46.17548" lon="4.8151">
        <ele>174</ele>
        <time>2025-02-21T21:57:47Z</time>
      </trkpt>
      <trkpt lat="46.17582" lon="4.81454">
        <ele>174</ele>
        <time>2025-02-21T21:58:56Z</time>
      </trkpt>
      <trkpt lat="46.17582" lon="4.81448">
        <ele>174</ele>
        <time>2025-02-21T21:59:02Z</time>
      </trkpt>
      <trkpt lat="46.17525" lon="4.81435">
        <ele>174</ele>
        <time>2025-02-21T22:00:19Z</time>
      </trkpt>
      <trkpt lat="46.17508" lon="4.81441">
        <ele>174</ele>
        <time>2025-02-21T22:00:42Z</time>
      </trkpt>
      <trkpt lat="46.1747" lon="4.81392">
        <ele>174</ele>
        <time>2025-02-21T22:01:50Z</time>
      </trkpt>
      <trkpt lat="46.1746" lon="4.81374">
        <ele>173</ele>
        <time>2025-02-21T22:02:12Z</time>
      </trkpt>
      <trkpt lat="46.1745" lon="4.8138">
        <ele>174</ele>
        <time>2025-02-21T22:02:26Z</time>
      </trkpt>
      <trkpt lat="46.17434" lon="4.81369">
        <ele>173</ele>
        <time>2025-02-21T22:02:50Z</time>
      </trkpt>
      <trkpt lat="46.17376" lon="4.81359">
        <ele>175</ele>
        <time>2025-02-21T22:04:08Z</time>
      </trkpt>
      <trkpt lat="46.17331" lon="4.81341">
        <ele>176</ele>
        <time>2025-02-21T22:05:10Z</time>
      </trkpt>
      <trkpt lat="46.17304" lon="4.81322">
        <ele>175</ele>
        <time>2025-02-21T22:05:50Z</time>
      </trkpt>
      <trkpt lat="46.17262" lon="4.81255">
        <ele>174</ele>
        <time>2025-02-21T22:07:13Z</time>
      </trkpt>
      <trkpt lat="46.17242" lon="4.80955">
        <ele>171</ele>
        <time>2025-02-21T22:11:52Z</time>
      </trkpt>
      <trkpt lat="46.17186" lon="4.80638">
        <ele>175</ele>
        <time>2025-02-21T22:16:54Z</time>
      </trkpt>
      <trkpt lat="46.17194" lon="4.8063">
        <ele>175</ele>
        <time>2025-02-21T22:17:07Z</time>
      </trkpt>
      <trkpt lat="46.17188" lon="4.8059">
        <ele>175</ele>
        <time>2025-02-21T22:17:45Z</time>
      </trkpt>
      <trkpt lat="46.17177" lon="4.80551">
        <ele>175</ele>
        <time>2025-02-21T22:18:24Z</time>
      </trkpt>
      <trkpt lat="46.17174" lon="4.80467">
        <ele>174</ele>
        <time>2025-02-21T22:19:42Z</time>
      </trkpt>
      <trkpt lat="46.17199" lon="4.80439">
        <ele>174</ele>
        <time>2025-02-21T22:20:24Z</time>
      </trkpt>
      <trkpt lat="46.17189" lon="4.80408">
        <ele>174</ele>
        <time>2025-02-21T22:20:56Z</time>
      </trkpt>
      <trkpt lat="46.1717" lon="4.80344">
        <ele>173</ele>
        <time>2025-02-21T22:22:00Z</time>
      </trkpt>
      <trkpt lat="46.1716" lon="4.80329">
        <ele>173</ele>
        <time>2025-02-21T22:22:19Z</time>
      </trkpt>
      <trkpt lat="46.17166" lon="4.8031">
        <ele>174</ele>
        <time>2025-02-21T22:22:38Z</time>
      </trkpt>
      <trkpt lat="46.17161" lon="4.80276">
        <ele>175</ele>
        <time>2025-02-21T22:23:11Z</time>
      </trkpt>
    </trkseg>
  </trk>
</gpx>